Time;durP1;ratioP1;P1;durP2;ratioP2;P2;SDS_P1;SDS_P2;PMS_P1;PMS_P2;Temp;Humidity;BMP_temperature;BMP_pressure;BME280_temperature;BME280_humidity;BME280_pressure;Samples;Min_cycle;Max_cycle;Signal;HPM_P1;HPM_P2
2022/09/11 05:03:35;;;;;;;4.07;3.00;;;16.10;99.90;;;;;;6251750;22;20087;-72
2022/09/11 05:06:10;;;;;;;4.63;3.20;;;16.10;99.90;;;;;;6227641;23;20004;-72
2022/09/11 05:08:36;;;;;;;4.72;3.30;;;16.00;99.90;;;;;;6254186;22;20252;-71
2022/09/11 05:11:05;;;;;;;5.35;2.90;;;16.10;99.90;;;;;;6253219;23;20010;-74
2022/09/11 05:13:32;;;;;;;5.63;3.17;;;16.10;99.90;;;;;;6254898;22;20004;-71
2022/09/11 05:16:03;;;;;;;7.60;3.65;;;16.10;99.90;;;;;;6227758;23;20004;-75
2022/09/11 05:18:29;;;;;;;3.85;3.10;;;16.10;99.90;;;;;;6254891;22;20024;-72
2022/09/11 05:21:03;;;;;;;6.82;3.20;;;16.10;99.90;;;;;;6252967;23;20000;-76
2022/09/11 05:23:31;;;;;;;4.50;3.13;;;16.20;99.90;;;;;;6253526;23;20004;-80
2022/09/11 05:26:03;;;;;;;5.78;3.25;;;16.20;99.90;;;;;;6229414;23;20334;-72
2022/09/11 05:28:30;;;;;;;7.55;3.38;;;16.20;99.90;;;;;;6253321;23;20321;-74
2022/09/11 05:30:58;;;;;;;5.43;3.80;;;16.20;99.90;;;;;;6252795;23;19992;-73
2022/09/11 05:33:25;;;;;;;4.13;3.00;;;16.20;99.90;;;;;;6253721;23;20070;-73
2022/09/11 05:35:53;;;;;;;6.18;3.13;;;16.30;99.90;;;;;;6252541;23;19996;-71
2022/09/11 05:38:21;;;;;;;5.40;3.42;;;16.20;99.90;;;;;;6253443;23;20289;-73
2022/09/11 05:40:49;;;;;;;8.68;4.13;;;16.20;99.90;;;;;;6253051;23;20050;-72
2022/09/11 05:43:18;;;;;;;5.72;2.97;;;16.30;99.90;;;;;;6253781;23;20228;-74
2022/09/11 05:45:44;;;;;;;5.68;3.75;;;16.30;99.90;;;;;;6252737;23;20020;-76
2022/09/11 05:48:11;;;;;;;5.10;3.47;;;16.30;99.90;;;;;;6253597;23;20004;-73
2022/09/11 05:50:38;;;;;;;8.98;3.58;;;16.30;99.90;;;;;;6253339;23;20225;-74
2022/09/11 05:53:04;;;;;;;6.53;3.70;;;16.30;99.90;;;;;;6228481;23;19996;-74
2022/09/11 05:55:34;;;;;;;5.32;3.47;;;16.30;99.90;;;;;;6253392;23;20015;-72
2022/09/11 05:58:01;;;;;;;4.45;3.28;;;16.30;99.90;;;;;;6251515;23;19989;-74
2022/09/11 06:00:29;;;;;;;5.63;3.50;;;16.40;99.90;;;;;;6227252;23;20016;-73
2022/09/11 06:02:57;;;;;;;6.55;3.95;;;16.40;99.90;;;;;;6220859;23;20036;-74
2022/09/11 06:05:27;;;;;;;7.65;3.22;;;16.40;99.90;;;;;;6246964;23;20001;-72
2022/09/11 06:07:56;;;;;;;5.00;3.47;;;16.40;99.90;;;;;;6220816;23;20220;-72
2022/09/11 06:10:22;;;;;;;5.18;3.30;;;16.50;99.90;;;;;;6246979;23;20035;-74
2022/09/11 06:12:48;;;;;;;5.00;3.28;;;16.60;99.90;;;;;;6220821;23;20024;-72
2022/09/11 06:15:14;;;;;;;7.60;4.25;;;16.60;99.90;;;;;;6246364;23;20147;-73
2022/09/11 06:17:40;;;;;;;6.60;4.00;;;16.70;99.90;;;;;;6246424;23;20032;-72
2022/09/11 06:20:08;;;;;;;7.28;4.00;;;16.70;99.90;;;;;;6246951;23;20023;-74
2022/09/11 06:22:36;;;;;;;4.30;3.15;;;16.70;99.90;;;;;;6246900;23;20071;-72
2022/09/11 06:25:02;;;;;;;6.20;4.10;;;16.70;99.90;;;;;;6246799;23;20004;-72
2022/09/11 06:27:28;;;;;;;5.00;3.97;;;16.70;99.90;;;;;;6247022;23;20004;-72
2022/09/11 06:29:54;;;;;;;7.22;3.90;;;16.90;99.90;;;;;;6245973;23;20179;-72
2022/09/11 06:32:20;;;;;;;5.22;3.90;;;16.90;99.90;;;;;;6221516;23;20059;-72
2022/09/11 06:34:45;;;;;;;5.50;3.70;;;16.90;99.90;;;;;;6246193;23;20207;-73
2022/09/11 06:37:13;;;;;;;5.88;4.13;;;17.00;99.90;;;;;;6221440;23;20005;-74
2022/09/11 06:39:39;;;;;;;4.90;3.78;;;17.00;99.90;;;;;;6220768;23;20012;-72
2022/09/11 06:42:07;;;;;;;5.18;3.88;;;17.10;99.90;;;;;;6221241;23;20013;-73
2022/09/11 06:44:35;;;;;;;6.28;4.00;;;17.10;99.90;;;;;;6245967;23;20009;-73
2022/09/11 06:47:02;;;;;;;6.15;3.88;;;17.10;99.90;;;;;;6244903;23;20008;-73
2022/09/11 06:49:29;;;;;;;6.27;4.17;;;17.10;99.90;;;;;;6246250;23;20072;-72
2022/09/11 06:52:27;;;;;;;;;;;17.30;99.90;;;;;;6189878;23;20400;-73
2022/09/11 06:55:14;;;;;;;6.55;4.03;;;17.20;99.90;;;;;;6210561;23;19920;-73
2022/09/11 06:57:49;;;;;;;7.72;4.05;;;17.20;99.90;;;;;;6220402;23;20028;-74
2022/09/11 07:00:20;;;;;;;6.32;4.13;;;17.20;99.90;;;;;;6221208;23;20273;-72
2022/09/11 07:02:46;;;;;;;5.60;3.70;;;17.20;99.90;;;;;;6245338;22;20059;-74
2022/09/11 07:05:12;;;;;;;7.57;4.30;;;17.30;99.90;;;;;;6246569;23;20016;-74
2022/09/11 07:07:40;;;;;;;5.53;3.78;;;17.30;99.90;;;;;;6246828;23;20210;-74
2022/09/11 07:10:09;;;;;;;;;;;17.40;99.90;;;;;;6221058;23;20027;-72
2022/09/11 07:12:37;;;;;;;6.90;3.55;;;17.40;99.90;;;;;;6220793;23;20245;-73
2022/09/11 07:15:05;;;;;;;6.20;4.15;;;17.50;99.90;;;;;;6245841;23;20170;-73
2022/09/11 07:17:34;;;;;;;6.95;4.60;;;17.60;99.90;;;;;;6246734;23;20052;-72
2022/09/11 07:20:01;;;;;;;5.28;4.35;;;17.50;99.90;;;;;;6222337;23;20004;-73
2022/09/11 07:22:28;;;;;;;5.75;4.30;;;17.60;99.90;;;;;;6222447;23;19991;-73
2022/09/11 07:24:54;;;;;;;6.95;4.28;;;17.60;99.90;;;;;;6246128;23;20009;-74
2022/09/11 07:27:20;;;;;;;5.50;4.25;;;17.60;99.90;;;;;;6246516;23;20008;-72
2022/09/11 07:29:46;;;;;;;8.70;4.25;;;17.50;99.90;;;;;;6220333;23;20293;-72
2022/09/11 07:32:18;;;;;;;5.93;4.60;;;17.40;99.90;;;;;;6220855;23;20059;-72
2022/09/11 07:34:46;;;;;;;8.20;4.82;;;17.40;99.90;;;;;;6220753;23;20068;-73
2022/09/11 07:37:13;;;;;;;7.65;4.40;;;17.60;99.90;;;;;;6246080;23;20053;-72
2022/09/11 07:39:39;;;;;;;9.40;4.00;;;17.70;99.90;;;;;;6246525;23;20013;-72
2022/09/11 07:42:10;;;;;;;5.25;3.85;;;17.80;99.90;;;;;;6246213;23;20036;-72
2022/09/11 07:44:36;;;;;;;9.73;4.18;;;17.90;99.90;;;;;;6246101;23;20096;-73
2022/09/11 07:47:03;;;;;;;6.53;3.97;;;18.00;99.90;;;;;;6245968;23;20062;-72
2022/09/11 07:49:32;;;;;;;6.32;4.03;;;18.10;99.90;;;;;;6220920;23;20336;-71
2022/09/11 07:51:58;;;;;;;5.50;3.85;;;18.10;99.90;;;;;;6221878;23;20012;-73
2022/09/11 07:54:35;;;;;;;4.90;3.97;;;18.10;99.90;;;;;;6246461;23;20013;-73
2022/09/11 07:57:02;;;;;;;6.15;4.18;;;18.10;99.90;;;;;;6220421;23;20224;-71
2022/09/11 07:59:28;;;;;;;5.95;4.03;;;18.10;99.90;;;;;;6247769;23;20000;-73
2022/09/11 08:01:55;;;;;;;6.65;3.97;;;18.00;99.90;;;;;;6221708;23;20016;-74
2022/09/11 08:04:21;;;;;;;6.60;4.47;;;18.00;99.90;;;;;;6248054;23;20004;-74
2022/09/11 08:06:50;;;;;;;8.65;3.75;;;18.10;99.90;;;;;;6246874;23;20313;-78
2022/09/11 08:09:20;;;;;;;5.72;3.65;;;18.30;99.90;;;;;;6247726;23;20020;-73
2022/09/11 08:11:52;;;;;;;6.78;3.90;;;18.40;99.90;;;;;;6247349;23;20011;-72
2022/09/11 08:14:24;;;;;;;7.40;4.13;;;18.50;99.90;;;;;;6246989;23;20020;-73
2022/09/11 08:16:57;;;;;;;5.97;4.00;;;18.60;99.90;;;;;;6221564;23;20086;-71
2022/09/11 08:19:26;;;;;;;9.32;5.03;;;18.60;99.90;;;;;;6221836;23;20005;-72
2022/09/11 08:21:54;;;;;;;;;;;18.70;99.90;;;;;;6198460;23;19996;-72
2022/09/11 08:24:20;;;;;;;6.10;4.03;;;18.90;99.90;;;;;;6199929;23;20142;-71
2022/09/11 08:26:49;;;;;;;6.80;4.05;;;19.00;99.90;;;;;;6223265;23;20008;-71
2022/09/11 08:29:17;;;;;;;5.93;4.30;;;19.10;99.90;;;;;;6223687;23;20005;-71
2022/09/11 08:31:44;;;;;;;5.97;4.00;;;19.20;99.90;;;;;;6248901;23;20211;-71
2022/09/11 08:34:10;;;;;;;6.15;4.38;;;19.30;99.90;;;;;;6248682;23;20100;-71
2022/09/11 08:36:37;;;;;;;7.55;4.00;;;19.60;99.90;;;;;;6248792;23;20139;-72
2022/09/11 08:39:05;;;;;;;6.20;3.85;;;19.90;99.90;;;;;;6223145;23;20013;-71
2022/09/11 08:41:48;;;;;;;5.18;3.65;;;20.00;99.90;;;;;;6248786;23;20005;-71
2022/09/11 08:44:44;;;;;;;5.35;3.22;;;20.40;99.90;;;;;;6223791;23;20008;-72
2022/09/11 08:47:21;;;;;;;4.90;3.30;;;20.50;99.90;;;;;;6247705;23;20028;-72
2022/09/11 08:50:12;;;;;;;5.95;3.72;;;20.70;99.90;;;;;;6248246;23;20008;-71
2022/09/11 08:52:40;;;;;;;5.82;3.90;;;20.30;99.90;;;;;;6222971;23;20009;-71
2022/09/11 08:55:16;;;;;;;6.38;3.70;;;20.00;99.90;;;;;;6247513;23;20201;-72
2022/09/11 08:58:07;;;;;;;7.60;3.92;;;19.80;99.90;;;;;;6223504;23;20011;-73
2022/09/11 09:00:51;;;;;;;7.00;4.55;;;19.50;99.90;;;;;;6223763;23;20005;-72
2022/09/11 09:03:32;;;;;;;7.03;4.55;;;19.10;99.90;;;;;;6225328;23;20016;-72
2022/09/11 09:06:34;;;;;;;7.43;4.10;;;18.90;99.90;;;;;;6247919;23;20053;-71
2022/09/11 09:09:18;;;;;;;;;;;18.90;99.90;;;;;;6209942;23;20036;-71
2022/09/11 09:11:45;;;;;;;7.13;4.65;;;19.10;99.90;;;;;;6223446;23;20109;-71
2022/09/11 09:14:51;;;;;;;5.88;4.03;;;19.20;99.90;;;;;;6223918;23;20007;-71
2022/09/11 09:17:31;;;;;;;6.18;4.00;;;19.40;99.90;;;;;;6162744;23;20034;-71
2022/09/11 09:20:12;;;;;;;5.10;3.58;;;19.90;99.90;;;;;;6217984;23;20005;-72
2022/09/11 09:22:56;;;;;;;5.68;3.72;;;20.40;99.90;;;;;;6223498;23;20064;-73
2022/09/11 09:25:25;;;;;;;4.85;3.20;;;20.70;99.90;;;;;;6198872;23;20064;-72
2022/09/11 09:28:07;;;;;;;5.03;2.80;;;21.10;99.90;;;;;;6247737;23;20015;-74
2022/09/11 09:30:50;;;;;;;5.22;3.33;;;21.40;97.80;;;;;;6248334;23;20008;-71
2022/09/11 09:33:30;;;;;;;4.35;3.20;;;21.60;97.40;;;;;;6222640;23;20015;-72
2022/09/11 09:36:09;;;;;;;4.05;2.92;;;21.80;96.80;;;;;;6247875;23;20012;-72
2022/09/11 09:38:34;;;;;;;4.05;3.03;;;21.90;96.10;;;;;;6223191;23;20005;-71
2022/09/11 09:41:48;;;;;;;3.47;2.45;;;21.60;95.20;;;;;;6248108;23;20009;-70
2022/09/11 09:44:32;;;;;;;3.63;2.55;;;21.50;95.80;;;;;;6162195;23;20068;-73
2022/09/11 09:46:58;;;;;;;3.83;2.90;;;21.50;95.40;;;;;;6162096;23;20010;-74
2022/09/11 09:49:34;;;;;;;4.82;3.08;;;21.60;95.40;;;;;;6162536;23;20009;-72
2022/09/11 09:52:12;;;;;;;3.50;2.72;;;21.60;95.70;;;;;;6161749;23;20005;-74
2022/09/11 09:54:38;;;;;;;4.07;3.20;;;21.70;95.70;;;;;;6162249;23;20069;-72
2022/09/11 09:57:09;;;;;;;4.35;3.05;;;21.70;95.60;;;;;;6160818;23;20014;-70
2022/09/11 09:59:41;;;;;;;5.05;3.30;;;21.60;95.20;;;;;;6162213;23;20013;-70
2022/09/11 10:02:07;;;;;;;4.72;2.78;;;21.50;95.70;;;;;;6161020;23;20153;-74
2022/09/11 10:04:35;;;;;;;6.68;3.25;;;21.40;95.40;;;;;;6162621;23;20022;-72
2022/09/11 10:07:13;;;;;;;4.70;3.13;;;21.30;95.70;;;;;;6161676;23;20072;-70
2022/09/11 10:09:55;;;;;;;6.13;3.55;;;21.40;95.60;;;;;;6162433;23;20017;-71
2022/09/11 10:12:26;;;;;;;5.05;3.42;;;21.70;94.60;;;;;;6161807;23;20076;-70
2022/09/11 10:14:58;;;;;;;5.20;2.95;;;21.80;94.40;;;;;;6191234;23;20008;-71
2022/09/11 10:17:28;;;;;;;5.50;3.72;;;21.80;93.40;;;;;;6224700;23;20028;-72
2022/09/11 10:19:55;;;;;;;4.50;3.10;;;21.90;93.10;;;;;;6223426;23;19996;-71
2022/09/11 10:22:30;;;;;;;5.30;3.13;;;21.80;93.40;;;;;;6224533;23;20039;-73
2022/09/11 10:25:08;;;;;;;4.35;3.15;;;22.20;93.10;;;;;;6223930;23;20046;-72
2022/09/11 10:27:46;;;;;;;5.63;2.85;;;22.40;92.10;;;;;;6224165;23;20052;-72
2022/09/11 10:30:33;;;;;;;4.45;2.55;;;22.50;92.40;;;;;;6223701;23;19997;-73
2022/09/11 10:33:02;;;;;;;5.13;3.08;;;22.70;92.30;;;;;;6223816;23;20005;-73
2022/09/11 10:35:30;;;;;;;3.33;2.83;;;22.70;92.30;;;;;;6224584;23;20019;-73
2022/09/11 10:38:12;;;;;;;5.30;3.60;;;22.80;92.60;;;;;;6223876;23;19993;-72
2022/09/11 10:40:40;;;;;;;5.80;3.28;;;22.90;92.20;;;;;;6224523;23;20000;-71
2022/09/11 10:43:19;;;;;;;6.07;3.37;;;22.90;91.80;;;;;;6223487;23;20011;-73
2022/09/11 10:46:05;;;;;;;5.63;4.32;;;23.10;91.40;;;;;;6224452;23;20001;-72
2022/09/11 10:48:31;;;;;;;4.18;3.38;;;23.10;91.50;;;;;;6224259;23;20041;-73
2022/09/11 10:51:06;;;;;;;4.72;3.13;;;23.20;91.30;;;;;;6222088;23;20300;-73
2022/09/11 10:53:49;;;;;;;6.75;3.58;;;23.30;91.00;;;;;;6222914;23;20095;-72
2022/09/11 10:56:16;;;;;;;4.95;3.50;;;23.30;90.90;;;;;;6222541;23;20082;-70
2022/09/11 10:58:44;;;;;;;6.05;4.05;;;23.20;91.10;;;;;;6223033;23;20214;-71
2022/09/11 11:01:10;;;;;;;4.28;3.10;;;23.10;90.70;;;;;;6221246;23;20259;-71
2022/09/11 11:03:37;;;;;;;5.35;3.58;;;23.30;90.80;;;;;;6222355;23;20005;-71
2022/09/11 11:06:05;;;;;;;4.65;3.35;;;23.70;90.20;;;;;;6222364;23;20071;-74
2022/09/11 11:08:49;;;;;;;5.80;3.20;;;24.40;89.60;;;;;;6223422;23;20008;-73
2022/09/11 11:11:33;;;;;;;4.25;3.10;;;25.30;86.90;;;;;;6246527;23;20000;-71
2022/09/11 11:14:06;;;;;;;4.15;2.72;;;26.00;82.60;;;;;;6246916;23;20043;-72
2022/09/11 11:16:56;;;;;;;3.83;2.55;;;26.40;80.40;;;;;;6224112;23;20322;-74
2022/09/11 11:19:37;;;;;;;2.78;2.05;;;26.80;78.90;;;;;;6224296;23;20042;-73
2022/09/11 11:22:15;;;;;;;3.80;2.03;;;26.40;79.00;;;;;;6223738;23;20035;-75
2022/09/11 11:25:34;;;;;;;3.78;2.85;;;26.60;79.60;;;;;;6223986;23;20009;-74
2022/09/11 11:28:22;;;;;;;3.65;2.20;;;27.30;77.20;;;;;;6161230;23;20006;-73
2022/09/11 11:31:20;;;;;;;3.63;2.20;;;28.10;73.90;;;;;;6161870;23;20005;-75
2022/09/11 11:33:57;;;;;;;3.90;2.05;;;28.60;73.40;;;;;;6161460;23;20002;-74
2022/09/11 11:36:39;;;;;;;2.75;2.00;;;29.20;70.70;;;;;;6136553;23;20017;-72
2022/09/11 11:39:15;;;;;;;2.45;1.90;;;29.10;70.50;;;;;;6161716;23;20160;-75
2022/09/11 11:41:49;;;;;;;4.25;2.00;;;29.50;69.40;;;;;;6161635;23;20012;-75
2022/09/11 11:44:35;;;;;;;3.00;1.75;;;30.30;68.80;;;;;;6161670;23;20321;-73
2022/09/11 11:47:06;;;;;;;3.20;2.22;;;30.70;68.30;;;;;;6161213;23;20311;-74
2022/09/11 11:50:02;;;;;;;5.45;2.47;;;31.30;67.00;;;;;;6136545;23;20022;-74
2022/09/11 11:52:30;;;;;;;3.38;1.73;;;31.70;65.00;;;;;;6161392;23;20002;-75
2022/09/11 11:55:15;;;;;;;2.20;1.40;;;32.30;63.80;;;;;;6160742;23;20069;-75
2022/09/11 11:57:48;;;;;;;2.97;1.60;;;32.40;61.30;;;;;;6167030;23;20287;-74
2022/09/11 12:00:16;;;;;;;3.55;1.48;;;32.70;59.60;;;;;;6225321;23;20008;-76
2022/09/11 12:02:45;;;;;;;3.42;1.83;;;33.60;58.70;;;;;;6223467;23;20009;-75
2022/09/11 12:05:19;;;;;;;2.97;1.65;;;34.50;58.00;;;;;;6224875;23;20004;-74
2022/09/11 12:07:46;;;;;;;3.35;1.77;;;34.00;56.10;;;;;;6225694;23;20047;-73
2022/09/11 12:10:46;;;;;;;2.92;1.80;;;34.20;57.10;;;;;;6225153;23;19996;-75
2022/09/11 12:13:15;;;;;;;2.50;1.40;;;34.70;57.70;;;;;;6220026;23;20064;-73
2022/09/11 12:16:13;;;;;;;2.45;1.55;;;35.40;58.30;;;;;;6249427;23;20027;-74
2022/09/11 12:18:41;;;;;;;3.05;1.50;;;36.40;56.20;;;;;;6224069;23;20035;-74
2022/09/11 12:21:30;;;;;;;2.20;1.35;;;36.00;54.40;;;;;;6224690;23;20015;-74
2022/09/11 12:23:56;;;;;;;3.33;1.58;;;35.20;54.30;;;;;;6217366;23;20008;-74
2022/09/11 12:26:24;;;;;;;3.00;1.60;;;34.30;55.30;;;;;;6224884;23;20001;-74
2022/09/11 12:29:10;;;;;;;2.38;1.52;;;34.10;56.10;;;;;;6248920;23;20001;-74
2022/09/11 12:31:59;;;;;;;10.38;9.43;;;34.30;55.60;;;;;;6225776;23;20020;-74
2022/09/11 12:34:45;;;;;;;4.80;3.80;;;33.30;56.80;;;;;;6217152;23;20294;-74
2022/09/11 12:37:24;;;;;;;2.63;1.88;;;32.30;58.20;;;;;;6223909;23;20076;-75
2022/09/11 12:39:55;;;;;;;3.60;2.33;;;31.10;60.50;;;;;;6224315;23;20167;-74
2022/09/11 12:42:26;;;;;;;3.00;2.33;;;29.90;62.80;;;;;;6222649;23;20015;-72
2022/09/11 12:44:53;;;;;;;4.45;2.58;;;29.20;64.00;;;;;;6225120;23;20032;-73
2022/09/11 12:47:27;;;;;;;4.30;2.70;;;28.70;65.40;;;;;;6224369;23;20222;-75
2022/09/11 12:49:56;;;;;;;3.42;2.75;;;28.00;66.10;;;;;;6224730;23;20058;-75
2022/09/11 12:52:32;;;;;;;3.05;2.60;;;27.40;67.60;;;;;;6224222;23;19997;-75
2022/09/11 12:55:05;;;;;;;4.18;2.78;;;26.90;69.80;;;;;;6224868;23;20004;-72
2022/09/11 12:57:34;;;;;;;3.13;2.45;;;26.60;70.10;;;;;;6225236;23;20028;-72
2022/09/11 13:00:06;;;;;;;4.32;2.75;;;26.50;70.30;;;;;;6225179;23;20055;-74
2022/09/11 13:02:48;;;;;;;3.33;2.47;;;26.40;71.90;;;;;;6224972;23;20013;-75
2022/09/11 13:05:33;;;;;;;4.50;3.10;;;26.30;70.30;;;;;;6224935;23;20170;-72
2022/09/11 13:08:23;;;;;;;3.75;2.50;;;26.40;71.80;;;;;;6224747;23;20001;-72
2022/09/11 13:10:49;;;;;;;4.82;3.17;;;26.50;71.00;;;;;;6225467;23;20001;-73
2022/09/11 13:13:34;;;;;;;3.25;2.70;;;26.70;70.90;;;;;;6248739;23;20267;-73
2022/09/11 13:16:38;;;;;;;3.42;2.88;;;26.90;71.60;;;;;;6224744;23;20324;-74
2022/09/11 13:19:38;;;;;;;4.13;2.85;;;26.90;70.00;;;;;;6223481;23;20028;-75
2022/09/11 13:22:42;;;;;;;4.85;3.08;;;26.50;71.00;;;;;;6248260;23;20320;-77
2022/09/11 13:25:19;;;;;;;3.57;2.90;;;26.20;73.20;;;;;;6161357;23;20098;-74
2022/09/11 13:27:50;;;;;;;6.15;3.05;;;26.20;72.20;;;;;;6218085;23;20099;-75
2022/09/11 13:30:21;;;;;;;5.22;2.85;;;26.30;72.30;;;;;;6222294;23;20005;-73
2022/09/11 13:32:53;;;;;;;6.32;3.17;;;26.10;73.70;;;;;;6247414;23;20028;-71
2022/09/11 13:35:25;;;;;;;4.45;2.90;;;26.30;73.50;;;;;;6223214;23;20015;-72
2022/09/11 13:37:57;;;;;;;5.53;3.28;;;26.40;72.60;;;;;;6224950;23;20000;-74
2022/09/11 13:40:47;;;;;;;4.60;3.00;;;26.10;72.80;;;;;;6224091;23;20020;-72
2022/09/11 13:43:34;;;;;;;3.67;3.03;;;26.10;72.90;;;;;;6222991;23;20217;-75
2022/09/11 13:46:33;;;;;;;4.75;2.85;;;26.10;73.70;;;;;;6224207;23;20004;-73
2022/09/11 13:49:09;;;;;;;4.30;3.08;;;26.50;72.40;;;;;;6224678;23;20211;-75
2022/09/11 13:51:39;;;;;;;5.05;3.58;;;26.50;72.00;;;;;;6225007;23;20052;-73
2022/09/11 13:54:14;;;;;;;3.35;2.88;;;26.30;72.00;;;;;;6223701;23;20206;-74
2022/09/11 13:57:14;;;;;;;4.25;3.10;;;26.40;73.00;;;;;;6224744;23;20043;-74
2022/09/11 13:59:44;;;;;;;4.70;2.83;;;26.50;71.50;;;;;;6224523;23;20056;-71
2022/09/11 14:02:29;;;;;;;3.95;2.80;;;26.30;71.70;;;;;;6247479;22;20016;-74
2022/09/11 14:05:13;;;;;;;3.17;2.70;;;26.30;72.80;;;;;;6223567;23;20005;-72
2022/09/11 14:08:16;;;;;;;4.65;2.88;;;26.30;72.90;;;;;;6224549;23;19997;-74
2022/09/11 14:10:42;;;;;;;3.75;2.70;;;26.50;72.30;;;;;;6224172;23;20283;-71
2022/09/11 14:13:34;;;;;;;4.60;2.88;;;26.60;72.20;;;;;;6224403;23;20007;-72
2022/09/11 14:16:03;;;;;;;3.05;2.55;;;26.90;71.90;;;;;;6218238;23;20015;-72
2022/09/11 14:18:47;;;;;;;15.10;3.05;;;26.90;70.80;;;;;;6223794;23;20005;-76
2022/09/11 14:21:37;;;;;;;4.05;2.58;;;26.60;71.50;;;;;;6224346;23;20004;-75
2022/09/11 14:24:07;;;;;;;3.85;2.90;;;26.90;72.10;;;;;;6248688;23;20023;-72
2022/09/11 14:26:34;;;;;;;4.05;2.50;;;27.30;69.30;;;;;;6224837;23;20229;-76
2022/09/11 14:29:05;;;;;;;3.10;2.13;;;27.50;69.90;;;;;;6223147;23;20027;-72
2022/09/11 14:31:43;;;;;;;2.13;1.90;;;28.20;69.20;;;;;;6224117;23;20024;-71
2022/09/11 14:34:24;;;;;;;2.37;1.80;;;30.40;63.00;;;;;;6223675;23;20076;-74
2022/09/11 14:37:08;;;;;;;3.00;2.28;;;32.70;58.90;;;;;;6224715;23;20195;-74
2022/09/11 14:39:48;;;;;;;3.38;2.20;;;34.90;56.70;;;;;;6224499;23;20012;-73
2022/09/11 14:42:21;;;;;;;3.22;1.70;;;33.60;57.00;;;;;;6223838;23;20336;-73
2022/09/11 14:44:47;;;;;;;2.80;2.15;;;32.60;58.30;;;;;;6247888;23;20011;-75
2022/09/11 14:47:22;;;;;;;2.25;1.80;;;33.80;57.20;;;;;;6223413;23;20009;-74
2022/09/11 14:49:49;;;;;;;2.72;1.55;;;35.20;55.50;;;;;;6224567;23;20020;-72
2022/09/11 14:52:19;;;;;;;2.58;1.70;;;37.30;53.60;;;;;;6222468;23;20028;-72
2022/09/11 14:54:46;;;;;;;2.45;1.85;;;37.80;52.10;;;;;;6224507;23;20019;-71
2022/09/11 14:57:14;;;;;;;2.40;1.75;;;37.50;52.40;;;;;;6223709;23;20031;-73
2022/09/11 14:59:41;;;;;;;3.85;1.63;;;38.80;50.50;;;;;;6224016;23;19989;-73
2022/09/11 15:02:18;;;;;;;2.10;1.35;;;39.30;49.80;;;;;;6223961;23;20064;-72
2022/09/11 15:04:46;;;;;;;2.13;1.40;;;39.90;49.40;;;;;;6224387;23;20078;-72
2022/09/11 15:07:13;;;;;;;2.33;1.50;;;40.20;48.30;;;;;;6247649;23;20321;-73
2022/09/11 15:09:39;;;;;;;4.10;1.40;;;40.50;48.50;;;;;;6224321;23;20016;-72
2022/09/11 15:12:06;;;;;;;2.75;1.30;;;42.20;47.90;;;;;;6224275;23;20004;-72
2022/09/11 15:14:32;;;;;;;3.75;1.63;;;41.70;47.10;;;;;;6247408;23;20313;-72
2022/09/11 15:17:02;;;;;;;2.22;1.20;;;42.20;46.40;;;;;;6224282;23;19996;-76
2022/09/11 15:19:29;;;;;;;2.42;1.33;;;41.50;47.30;;;;;;6223257;23;20004;-74
2022/09/11 15:21:55;;;;;;;3.33;2.72;;;40.80;46.70;;;;;;6223788;23;20004;-71
2022/09/11 15:24:22;;;;;;;3.00;2.30;;;39.70;48.90;;;;;;6222862;23;20369;-73
2022/09/11 15:26:50;;;;;;;4.65;1.80;;;39.50;48.60;;;;;;6223899;23;20042;-71
2022/09/11 15:29:20;;;;;;;2.35;1.73;;;39.40;48.00;;;;;;6223336;23;20004;-73
2022/09/11 15:31:47;;;;;;;2.88;1.45;;;39.10;48.20;;;;;;6223249;23;19997;-72
2022/09/11 15:34:15;;;;;;;3.10;1.75;;;39.40;47.80;;;;;;6225147;23;20299;-72
2022/09/11 15:36:41;;;;;;;1.95;1.23;;;39.80;49.80;;;;;;6224835;23;19985;-73
2022/09/11 15:39:12;;;;;;;2.30;1.52;;;38.50;48.20;;;;;;6225111;23;20012;-72
2022/09/11 15:41:37;;;;;;;2.72;1.70;;;37.50;49.60;;;;;;6224713;23;20005;-73
2022/09/11 15:44:10;;;;;;;3.20;1.48;;;36.60;51.00;;;;;;6224402;23;20024;-72
2022/09/11 15:46:36;;;;;;;2.20;1.60;;;34.70;52.20;;;;;;6226015;23;20095;-74
2022/09/11 15:49:01;;;;;;;4.03;3.60;;;33.60;55.70;;;;;;6226109;23;19993;-74
2022/09/11 15:51:30;;;;;;;3.03;2.30;;;32.80;56.50;;;;;;6225100;23;20003;-75
2022/09/11 15:53:59;;;;;;;2.92;2.10;;;33.90;54.60;;;;;;6225765;23;20013;-72
2022/09/11 15:56:27;;;;;;;2.30;1.73;;;35.50;53.20;;;;;;6225470;23;20051;-72
2022/09/11 15:58:55;;;;;;;;;;;37.00;51.10;;;;;;6226885;23;19993;-73
2022/09/11 16:01:27;;;;;;;2.40;1.50;;;38.00;50.30;;;;;;6225177;23;20201;-73
2022/09/11 16:03:56;;;;;;;1.93;1.20;;;38.50;48.80;;;;;;6226057;23;20278;-72
2022/09/11 16:06:27;;;;;;;2.40;1.38;;;38.40;48.10;;;;;;6224669;23;20353;-72
2022/09/11 16:09:04;;;;;;;4.53;1.40;;;38.30;48.40;;;;;;6249166;23;20016;-72
2022/09/11 16:11:31;;;;;;;2.17;1.27;;;38.90;48.50;;;;;;6249084;23;20012;-73
2022/09/11 16:13:58;;;;;;;2.88;1.73;;;39.30;47.60;;;;;;6225424;23;20000;-72
2022/09/11 16:16:25;;;;;;;3.50;1.45;;;38.00;47.50;;;;;;6224782;23;20007;-74
2022/09/11 16:18:52;;;;;;;1.85;1.20;;;37.60;48.20;;;;;;6225651;23;20088;-76
2022/09/11 16:21:19;;;;;;;2.23;1.40;;;37.70;49.20;;;;;;6223480;23;20008;-73
2022/09/11 16:23:45;;;;;;;2.10;1.40;;;37.70;48.40;;;;;;6249956;23;20001;-72
2022/09/11 16:26:17;;;;;;;2.33;1.40;;;37.80;49.00;;;;;;6249670;23;20024;-74
2022/09/11 16:28:44;;;;;;;2.30;1.50;;;37.70;49.00;;;;;;6224997;23;20000;-74
2022/09/11 16:31:59;;;;;;;2.13;1.45;;;37.40;49.20;;;;;;6225727;23;20074;-77
2022/09/11 16:34:27;;;;;;;2.10;1.30;;;37.50;48.10;;;;;;6197839;23;20282;-74
2022/09/11 16:40:56;;;;;;;2.35;1.55;;;37.30;49.90;;;;;;6225872;23;20065;-73
2022/09/11 16:43:21;;;;;;;3.75;2.67;;;36.80;49.60;;;;;;6196746;23;20294;-72
2022/09/11 16:45:51;;;;;;;2.75;2.03;;;36.00;50.00;;;;;;6249876;23;19997;-74
2022/09/11 16:48:17;;;;;;;3.13;1.73;;;35.80;51.20;;;;;;6224592;23;20020;-73
2022/09/11 16:50:52;;;;;;;3.10;1.67;;;35.10;52.60;;;;;;6249633;23;19999;-73
2022/09/11 16:53:18;;;;;;;2.88;2.05;;;33.50;53.70;;;;;;6224228;23;20218;-72
2022/09/11 16:55:45;;;;;;;3.30;2.08;;;32.00;55.20;;;;;;6223972;23;20207;-72
2022/09/11 16:58:11;;;;;;;2.90;2.25;;;30.80;58.30;;;;;;6249295;23;20164;-72
2022/09/11 17:00:43;;;;;;;4.05;2.35;;;29.60;59.90;;;;;;6248128;23;20004;-73
2022/09/11 17:03:13;;;;;;;4.15;2.47;;;28.80;62.80;;;;;;6224672;23;20100;-73
2022/09/11 17:05:50;;;;;;;3.78;2.50;;;28.00;62.40;;;;;;6223215;23;20004;-74
2022/09/11 17:08:17;;;;;;;3.15;2.25;;;27.30;64.50;;;;;;6248559;23;20314;-74
2022/09/11 17:10:44;;;;;;;3.58;2.72;;;26.80;66.40;;;;;;6225287;23;20191;-73
2022/09/11 17:13:11;;;;;;;2.73;2.27;;;26.20;66.50;;;;;;6225068;23;20003;-74
2022/09/11 17:15:38;;;;;;;5.03;3.50;;;25.80;69.20;;;;;;6222886;23;20004;-72
2022/09/11 17:18:06;;;;;;;4.53;2.95;;;25.30;70.80;;;;;;6248645;23;20183;-74
2022/09/11 17:20:33;;;;;;;7.20;4.50;;;24.90;72.00;;;;;;6248402;23;20294;-73
2022/09/11 17:23:10;;;;;;;4.80;3.70;;;24.50;72.10;;;;;;6198850;23;20072;-73
2022/09/11 17:25:40;;;;;;;6.53;5.47;;;24.20;73.30;;;;;;6224250;23;20287;-72
2022/09/11 17:28:09;;;;;;;4.32;3.30;;;23.90;75.10;;;;;;6224901;23;20261;-72
2022/09/11 17:30:38;;;;;;;4.57;3.35;;;23.70;74.90;;;;;;6224704;23;19999;-73
2022/09/11 17:33:07;;;;;;;4.18;3.20;;;23.40;75.30;;;;;;6225052;23;20004;-73
2022/09/11 17:35:36;;;;;;;5.13;3.67;;;23.20;75.90;;;;;;6222284;23;20005;-75
2022/09/11 17:38:02;;;;;;;4.40;3.20;;;23.10;76.80;;;;;;6224871;23;20000;-74
2022/09/11 17:40:30;;;;;;;4.80;3.70;;;23.00;78.00;;;;;;6223951;23;20042;-75
2022/09/11 17:42:55;;;;;;;4.22;3.22;;;22.90;78.90;;;;;;6248917;23;20009;-74
2022/09/11 17:45:24;;;;;;;4.05;3.38;;;22.70;78.20;;;;;;6223929;23;19996;-71
2022/09/11 17:47:51;;;;;;;4.68;3.40;;;22.60;80.20;;;;;;6224514;23;20297;-74
2022/09/11 17:50:17;;;;;;;4.95;3.70;;;22.40;79.70;;;;;;6224498;23;19993;-73
2022/09/11 17:52:43;;;;;;;17.50;14.73;;;22.30;80.70;;;;;;6224669;23;20001;-74
2022/09/11 17:55:10;;;;;;;8.30;6.00;;;22.20;80.80;;;;;;6224256;23;20001;-73
2022/09/11 17:57:36;;;;;;;8.90;7.05;;;22.10;80.60;;;;;;6223663;23;19996;-73
2022/09/11 18:00:04;;;;;;;8.07;7.13;;;22.00;81.80;;;;;;6224702;23;20291;-73
2022/09/11 18:02:37;;;;;;;5.65;4.70;;;21.90;82.00;;;;;;6223540;23;20081;-73
2022/09/11 18:05:04;;;;;;;6.18;5.10;;;21.70;82.60;;;;;;6224624;23;20047;-74
2022/09/11 18:07:29;;;;;;;6.18;4.80;;;21.50;83.10;;;;;;6223900;23;20235;-74
2022/09/11 18:09:55;;;;;;;7.57;5.32;;;21.40;83.80;;;;;;6224858;23;20042;-73
2022/09/11 18:12:21;;;;;;;7.28;5.00;;;21.30;84.50;;;;;;6223277;23;20301;-74
2022/09/11 18:14:46;;;;;;;5.90;4.43;;;21.20;84.70;;;;;;6248260;23;20004;-74
2022/09/11 18:17:12;;;;;;;5.70;4.50;;;21.20;85.50;;;;;;6224472;23;20170;-73
2022/09/11 18:19:38;;;;;;;6.00;4.35;;;21.10;86.10;;;;;;6223514;23;19997;-72
2022/09/11 18:22:08;;;;;;;5.65;4.28;;;21.00;86.20;;;;;;6224411;23;20283;-72
2022/09/11 18:24:34;;;;;;;7.53;5.20;;;20.90;86.70;;;;;;6224054;23;20009;-73